sensor_id;sensor_type;location;lat;lon;timestamp;P1;durP1;ratioP1;P2;durP2;ratioP2
70406;SDS011;57821;52.202;0.154;2023-04-07T00:00:45;13.13;;;1.55;;
70406;SDS011;57821;52.202;0.154;2023-04-07T00:03:32;9.05;;;1.85;;
70406;SDS011;57821;52.202;0.154;2023-04-07T00:06:19;11.20;;;1.40;;
70406;SDS011;57821;52.202;0.154;2023-04-07T00:09:06;12.77;;;1.33;;
70406;SDS011;57821;52.202;0.154;2023-04-07T00:11:52;9.10;;;2.28;;
70406;SDS011;57821;52.202;0.154;2023-04-07T00:14:39;12.18;;;1.73;;
70406;SDS011;57821;52.202;0.154;2023-04-07T00:17:26;8.63;;;1.30;;
70406;SDS011;57821;52.202;0.154;2023-04-07T00:20:13;5.45;;;1.15;;
70406;SDS011;57821;52.202;0.154;2023-04-07T00:23:00;8.25;;;1.30;;
70406;SDS011;57821;52.202;0.154;2023-04-07T00:25:47;7.55;;;1.50;;
70406;SDS011;57821;52.202;0.154;2023-04-07T00:28:34;8.93;;;1.60;;
70406;SDS011;57821;52.202;0.154;2023-04-07T00:31:21;9.57;;;1.75;;
70406;SDS011;57821;52.202;0.154;2023-04-07T00:34:08;11.40;;;1.52;;
70406;SDS011;57821;52.202;0.154;2023-04-07T00:36:54;9.20;;;1.33;;
70406;SDS011;57821;52.202;0.154;2023-04-07T00:39:41;9.02;;;1.38;;
70406;SDS011;57821;52.202;0.154;2023-04-07T00:42:28;9.85;;;1.60;;
70406;SDS011;57821;52.202;0.154;2023-04-07T00:45:15;11.63;;;1.77;;
70406;SDS011;57821;52.202;0.154;2023-04-07T00:48:02;6.05;;;1.30;;
70406;SDS011;57821;52.202;0.154;2023-04-07T00:50:50;15.65;;;2.45;;
70406;SDS011;57821;52.202;0.154;2023-04-07T00:53:37;11.60;;;1.52;;
70406;SDS011;57821;52.202;0.154;2023-04-07T00:56:24;10.48;;;2.00;;
70406;SDS011;57821;52.202;0.154;2023-04-07T00:59:12;6.38;;;1.77;;
70406;SDS011;57821;52.202;0.154;2023-04-07T01:11:54;10.68;;;1.70;;
70406;SDS011;57821;52.202;0.154;2023-04-07T01:14:50;11.75;;;1.77;;
70406;SDS011;57821;52.202;0.154;2023-04-07T01:18:00;12.00;;;1.58;;
70406;SDS011;57821;52.202;0.154;2023-04-07T01:20:55;9.43;;;1.45;;
70406;SDS011;57821;52.202;0.154;2023-04-07T01:24:10;13.50;;;1.73;;
70406;SDS011;57821;52.202;0.154;2023-04-07T01:30:00;7.13;;;1.30;;
70406;SDS011;57821;52.202;0.154;2023-04-07T01:32:49;10.43;;;1.50;;
70406;SDS011;57821;52.202;0.154;2023-04-07T01:35:39;13.73;;;2.85;;
70406;SDS011;57821;52.202;0.154;2023-04-07T01:38:29;11.75;;;1.42;;
70406;SDS011;57821;52.202;0.154;2023-04-07T01:41:17;9.07;;;1.83;;
70406;SDS011;57821;52.202;0.154;2023-04-07T01:44:05;9.93;;;2.00;;
70406;SDS011;57821;52.202;0.154;2023-04-07T01:46:54;8.30;;;2.28;;
70406;SDS011;57821;52.202;0.154;2023-04-07T01:49:42;9.18;;;1.77;;
70406;SDS011;57821;52.202;0.154;2023-04-07T01:52:31;9.77;;;1.40;;
70406;SDS011;57821;52.202;0.154;2023-04-07T01:55:20;11.13;;;1.73;;
70406;SDS011;57821;52.202;0.154;2023-04-07T01:58:23;8.90;;;1.50;;
70406;SDS011;57821;52.202;0.154;2023-04-07T02:01:10;8.25;;;1.33;;
70406;SDS011;57821;52.202;0.154;2023-04-07T02:04:10;10.32;;;2.88;;
70406;SDS011;57821;52.202;0.154;2023-04-07T02:07:04;9.00;;;1.40;;
70406;SDS011;57821;52.202;0.154;2023-04-07T02:09:59;10.77;;;1.50;;
70406;SDS011;57821;52.202;0.154;2023-04-07T02:12:48;10.93;;;1.70;;
70406;SDS011;57821;52.202;0.154;2023-04-07T02:15:38;10.60;;;1.95;;
70406;SDS011;57821;52.202;0.154;2023-04-07T02:18:26;11.10;;;1.80;;
70406;SDS011;57821;52.202;0.154;2023-04-07T02:21:16;8.75;;;1.70;;
70406;SDS011;57821;52.202;0.154;2023-04-07T02:24:05;15.93;;;3.35;;
70406;SDS011;57821;52.202;0.154;2023-04-07T02:26:52;12.30;;;1.48;;
70406;SDS011;57821;52.202;0.154;2023-04-07T02:29:39;12.18;;;2.10;;
70406;SDS011;57821;52.202;0.154;2023-04-07T02:32:26;11.38;;;1.90;;
70406;SDS011;57821;52.202;0.154;2023-04-07T02:35:13;10.85;;;2.05;;
70406;SDS011;57821;52.202;0.154;2023-04-07T02:38:00;10.95;;;2.33;;
70406;SDS011;57821;52.202;0.154;2023-04-07T02:40:47;8.52;;;2.20;;
70406;SDS011;57821;52.202;0.154;2023-04-07T02:43:34;12.05;;;2.15;;
70406;SDS011;57821;52.202;0.154;2023-04-07T02:46:21;13.90;;;1.80;;
70406;SDS011;57821;52.202;0.154;2023-04-07T02:49:08;13.18;;;1.75;;
70406;SDS011;57821;52.202;0.154;2023-04-07T02:51:57;10.77;;;1.55;;
70406;SDS011;57821;52.202;0.154;2023-04-07T02:54:44;7.78;;;1.90;;
70406;SDS011;57821;52.202;0.154;2023-04-07T02:57:31;9.13;;;2.00;;
70406;SDS011;57821;52.202;0.154;2023-04-07T03:00:21;8.13;;;1.50;;
70406;SDS011;57821;52.202;0.154;2023-04-07T03:03:23;10.30;;;1.45;;
70406;SDS011;57821;52.202;0.154;2023-04-07T03:06:21;6.38;;;1.70;;
70406;SDS011;57821;52.202;0.154;2023-04-07T03:09:20;12.43;;;2.25;;
70406;SDS011;57821;52.202;0.154;2023-04-07T03:12:06;12.05;;;1.75;;
70406;SDS011;57821;52.202;0.154;2023-04-07T03:14:55;10.95;;;2.13;;
70406;SDS011;57821;52.202;0.154;2023-04-07T03:17:43;15.80;;;4.72;;
70406;SDS011;57821;52.202;0.154;2023-04-07T03:20:30;8.88;;;1.90;;
70406;SDS011;57821;52.202;0.154;2023-04-07T03:23:21;12.90;;;1.80;;
70406;SDS011;57821;52.202;0.154;2023-04-07T03:26:09;10.15;;;1.83;;
70406;SDS011;57821;52.202;0.154;2023-04-07T03:28:57;10.45;;;1.55;;
70406;SDS011;57821;52.202;0.154;2023-04-07T03:31:44;15.43;;;1.80;;
70406;SDS011;57821;52.202;0.154;2023-04-07T03:34:34;12.68;;;2.13;;
70406;SDS011;57821;52.202;0.154;2023-04-07T03:37:21;11.10;;;1.58;;
70406;SDS011;57821;52.202;0.154;2023-04-07T03:40:08;16.08;;;1.95;;
70406;SDS011;57821;52.202;0.154;2023-04-07T03:42:55;7.00;;;1.50;;
70406;SDS011;57821;52.202;0.154;2023-04-07T03:45:42;9.02;;;1.63;;
70406;SDS011;57821;52.202;0.154;2023-04-07T03:48:29;9.40;;;1.70;;
70406;SDS011;57821;52.202;0.154;2023-04-07T03:51:27;11.63;;;1.80;;
70406;SDS011;57821;52.202;0.154;2023-04-07T03:54:16;14.48;;;1.92;;
70406;SDS011;57821;52.202;0.154;2023-04-07T03:57:04;12.50;;;1.83;;
70406;SDS011;57821;52.202;0.154;2023-04-07T04:02:42;8.00;;;1.60;;
70406;SDS011;57821;52.202;0.154;2023-04-07T04:05:34;12.02;;;2.15;;
70406;SDS011;57821;52.202;0.154;2023-04-07T04:08:21;9.95;;;1.33;;
70406;SDS011;57821;52.202;0.154;2023-04-07T04:11:09;17.33;;;2.80;;
70406;SDS011;57821;52.202;0.154;2023-04-07T04:14:03;12.07;;;2.53;;
70406;SDS011;57821;52.202;0.154;2023-04-07T04:16:52;9.57;;;1.77;;
70406;SDS011;57821;52.202;0.154;2023-04-07T04:19:53;7.80;;;1.85;;
70406;SDS011;57821;52.202;0.154;2023-04-07T04:22:46;10.82;;;1.60;;
70406;SDS011;57821;52.202;0.154;2023-04-07T04:25:33;7.55;;;1.58;;
70406;SDS011;57821;52.202;0.154;2023-04-07T04:28:23;9.55;;;2.10;;
70406;SDS011;57821;52.202;0.154;2023-04-07T04:31:10;17.27;;;2.67;;
70406;SDS011;57821;52.202;0.154;2023-04-07T04:34:01;13.83;;;2.13;;
70406;SDS011;57821;52.202;0.154;2023-04-07T04:36:49;8.80;;;1.65;;
70406;SDS011;57821;52.202;0.154;2023-04-07T04:39:38;8.95;;;1.48;;
70406;SDS011;57821;52.202;0.154;2023-04-07T04:42:26;8.25;;;1.80;;
70406;SDS011;57821;52.202;0.154;2023-04-07T04:45:16;10.98;;;1.98;;
70406;SDS011;57821;52.202;0.154;2023-04-07T04:48:06;8.50;;;1.45;;
70406;SDS011;57821;52.202;0.154;2023-04-07T04:50:53;10.98;;;1.63;;
70406;SDS011;57821;52.202;0.154;2023-04-07T04:53:41;10.88;;;2.65;;
70406;SDS011;57821;52.202;0.154;2023-04-07T04:56:27;8.00;;;1.23;;
70406;SDS011;57821;52.202;0.154;2023-04-07T04:59:14;12.23;;;1.90;;
70406;SDS011;57821;52.202;0.154;2023-04-07T05:02:18;8.60;;;2.10;;
70406;SDS011;57821;52.202;0.154;2023-04-07T05:05:06;12.57;;;2.03;;
70406;SDS011;57821;52.202;0.154;2023-04-07T05:07:53;12.05;;;1.50;;
70406;SDS011;57821;52.202;0.154;2023-04-07T05:10:41;12.88;;;1.90;;
70406;SDS011;57821;52.202;0.154;2023-04-07T05:13:32;9.20;;;1.67;;
70406;SDS011;57821;52.202;0.154;2023-04-07T05:16:21;4.88;;;1.35;;
70406;SDS011;57821;52.202;0.154;2023-04-07T05:19:09;11.70;;;1.90;;
70406;SDS011;57821;52.202;0.154;2023-04-07T05:21:56;14.40;;;2.33;;
70406;SDS011;57821;52.202;0.154;2023-04-07T05:24:44;7.72;;;1.70;;
70406;SDS011;57821;52.202;0.154;2023-04-07T05:27:31;8.52;;;1.90;;
70406;SDS011;57821;52.202;0.154;2023-04-07T05:30:22;12.20;;;1.88;;
70406;SDS011;57821;52.202;0.154;2023-04-07T05:33:08;12.20;;;1.88;;
70406;SDS011;57821;52.202;0.154;2023-04-07T05:36:03;13.13;;;1.85;;
70406;SDS011;57821;52.202;0.154;2023-04-07T05:38:51;24.50;;;3.33;;
70406;SDS011;57821;52.202;0.154;2023-04-07T05:41:38;10.80;;;2.05;;
70406;SDS011;57821;52.202;0.154;2023-04-07T05:44:25;10.18;;;1.70;;
70406;SDS011;57821;52.202;0.154;2023-04-07T05:47:13;7.80;;;1.90;;
70406;SDS011;57821;52.202;0.154;2023-04-07T05:50:00;6.97;;;1.52;;
70406;SDS011;57821;52.202;0.154;2023-04-07T05:52:49;18.00;;;2.22;;
70406;SDS011;57821;52.202;0.154;2023-04-07T05:55:45;11.77;;;2.13;;
70406;SDS011;57821;52.202;0.154;2023-04-07T05:58:41;8.10;;;1.75;;
70406;SDS011;57821;52.202;0.154;2023-04-07T06:01:29;9.45;;;2.20;;
70406;SDS011;57821;52.202;0.154;2023-04-07T06:04:17;9.85;;;1.77;;
70406;SDS011;57821;52.202;0.154;2023-04-07T06:07:06;11.88;;;1.50;;
70406;SDS011;57821;52.202;0.154;2023-04-07T06:09:53;10.38;;;2.38;;
70406;SDS011;57821;52.202;0.154;2023-04-07T06:12:40;12.18;;;1.90;;
70406;SDS011;57821;52.202;0.154;2023-04-07T06:15:27;13.13;;;2.35;;
70406;SDS011;57821;52.202;0.154;2023-04-07T06:18:14;8.60;;;1.90;;
70406;SDS011;57821;52.202;0.154;2023-04-07T06:21:00;10.93;;;1.95;;
70406;SDS011;57821;52.202;0.154;2023-04-07T06:23:47;9.15;;;2.05;;
70406;SDS011;57821;52.202;0.154;2023-04-07T06:26:35;7.57;;;1.65;;
70406;SDS011;57821;52.202;0.154;2023-04-07T06:29:22;12.65;;;2.42;;
70406;SDS011;57821;52.202;0.154;2023-04-07T06:32:09;9.73;;;1.92;;
70406;SDS011;57821;52.202;0.154;2023-04-07T06:34:55;5.78;;;1.60;;
70406;SDS011;57821;52.202;0.154;2023-04-07T06:37:42;8.70;;;1.92;;
70406;SDS011;57821;52.202;0.154;2023-04-07T06:40:29;11.80;;;2.03;;
70406;SDS011;57821;52.202;0.154;2023-04-07T06:43:17;8.75;;;2.40;;
70406;SDS011;57821;52.202;0.154;2023-04-07T06:46:13;6.80;;;1.75;;
70406;SDS011;57821;52.202;0.154;2023-04-07T06:49:00;9.23;;;2.03;;
70406;SDS011;57821;52.202;0.154;2023-04-07T06:51:47;12.90;;;2.03;;
70406;SDS011;57821;52.202;0.154;2023-04-07T06:54:34;10.50;;;1.73;;
70406;SDS011;57821;52.202;0.154;2023-04-07T06:57:21;9.02;;;2.10;;
70406;SDS011;57821;52.202;0.154;2023-04-07T07:00:08;7.43;;;1.45;;
70406;SDS011;57821;52.202;0.154;2023-04-07T07:02:55;9.07;;;1.75;;
70406;SDS011;57821;52.202;0.154;2023-04-07T07:05:42;9.52;;;1.58;;
70406;SDS011;57821;52.202;0.154;2023-04-07T07:08:29;7.65;;;1.85;;
70406;SDS011;57821;52.202;0.154;2023-04-07T07:11:16;12.18;;;1.80;;
70406;SDS011;57821;52.202;0.154;2023-04-07T07:14:03;9.30;;;1.70;;
70406;SDS011;57821;52.202;0.154;2023-04-07T07:16:50;9.63;;;2.00;;
70406;SDS011;57821;52.202;0.154;2023-04-07T07:19:37;8.52;;;1.70;;
70406;SDS011;57821;52.202;0.154;2023-04-07T07:22:23;8.90;;;1.80;;
70406;SDS011;57821;52.202;0.154;2023-04-07T07:25:10;8.10;;;1.63;;
70406;SDS011;57821;52.202;0.154;2023-04-07T07:27:57;9.73;;;1.85;;
70406;SDS011;57821;52.202;0.154;2023-04-07T07:30:44;12.43;;;1.70;;
70406;SDS011;57821;52.202;0.154;2023-04-07T07:33:31;9.95;;;2.20;;
70406;SDS011;57821;52.202;0.154;2023-04-07T07:36:18;8.60;;;1.85;;
70406;SDS011;57821;52.202;0.154;2023-04-07T07:39:04;8.27;;;1.92;;
70406;SDS011;57821;52.202;0.154;2023-04-07T07:41:51;5.55;;;1.63;;
70406;SDS011;57821;52.202;0.154;2023-04-07T07:44:38;8.55;;;1.90;;
70406;SDS011;57821;52.202;0.154;2023-04-07T07:47:25;12.38;;;1.98;;
70406;SDS011;57821;52.202;0.154;2023-04-07T07:50:12;11.55;;;2.75;;
70406;SDS011;57821;52.202;0.154;2023-04-07T07:52:59;9.68;;;1.60;;
70406;SDS011;57821;52.202;0.154;2023-04-07T07:55:46;6.15;;;1.48;;
70406;SDS011;57821;52.202;0.154;2023-04-07T07:58:32;8.43;;;1.65;;
70406;SDS011;57821;52.202;0.154;2023-04-07T08:01:19;8.50;;;2.55;;
70406;SDS011;57821;52.202;0.154;2023-04-07T08:04:06;11.43;;;1.70;;
70406;SDS011;57821;52.202;0.154;2023-04-07T08:06:53;13.05;;;1.80;;
70406;SDS011;57821;52.202;0.154;2023-04-07T08:09:40;9.98;;;1.67;;
70406;SDS011;57821;52.202;0.154;2023-04-07T08:12:27;8.05;;;1.20;;
70406;SDS011;57821;52.202;0.154;2023-04-07T08:15:13;7.80;;;1.40;;
70406;SDS011;57821;52.202;0.154;2023-04-07T08:18:00;8.05;;;2.63;;
70406;SDS011;57821;52.202;0.154;2023-04-07T08:20:47;7.88;;;1.38;;
70406;SDS011;57821;52.202;0.154;2023-04-07T08:23:34;7.88;;;1.38;;
70406;SDS011;57821;52.202;0.154;2023-04-07T08:26:21;7.32;;;1.52;;
70406;SDS011;57821;52.202;0.154;2023-04-07T08:29:08;16.08;;;4.80;;
70406;SDS011;57821;52.202;0.154;2023-04-07T08:31:55;14.52;;;3.45;;
70406;SDS011;57821;52.202;0.154;2023-04-07T08:34:42;16.98;;;4.95;;
70406;SDS011;57821;52.202;0.154;2023-04-07T08:37:29;23.27;;;8.18;;
70406;SDS011;57821;52.202;0.154;2023-04-07T08:40:16;9.32;;;2.22;;
70406;SDS011;57821;52.202;0.154;2023-04-07T08:43:05;11.00;;;2.92;;
70406;SDS011;57821;52.202;0.154;2023-04-07T08:45:55;14.65;;;4.10;;
70406;SDS011;57821;52.202;0.154;2023-04-07T08:48:43;7.13;;;1.45;;
70406;SDS011;57821;52.202;0.154;2023-04-07T08:51:30;9.13;;;1.67;;
70406;SDS011;57821;52.202;0.154;2023-04-07T08:54:18;10.20;;;1.70;;
70406;SDS011;57821;52.202;0.154;2023-04-07T08:57:06;7.30;;;1.42;;
70406;SDS011;57821;52.202;0.154;2023-04-07T08:59:53;6.90;;;1.23;;
70406;SDS011;57821;52.202;0.154;2023-04-07T09:02:41;6.97;;;1.52;;
70406;SDS011;57821;52.202;0.154;2023-04-07T09:05:29;7.75;;;1.40;;
70406;SDS011;57821;52.202;0.154;2023-04-07T09:08:16;11.77;;;1.58;;
70406;SDS011;57821;52.202;0.154;2023-04-07T09:11:03;9.50;;;1.48;;
70406;SDS011;57821;52.202;0.154;2023-04-07T09:13:50;9.23;;;1.92;;
70406;SDS011;57821;52.202;0.154;2023-04-07T09:16:37;7.28;;;1.80;;
70406;SDS011;57821;52.202;0.154;2023-04-07T09:19:25;5.25;;;1.92;;
70406;SDS011;57821;52.202;0.154;2023-04-07T09:22:13;8.02;;;1.35;;
70406;SDS011;57821;52.202;0.154;2023-04-07T09:28:00;7.22;;;1.88;;
70406;SDS011;57821;52.202;0.154;2023-04-07T09:30:54;8.23;;;2.00;;
70406;SDS011;57821;52.202;0.154;2023-04-07T09:33:41;8.18;;;1.40;;
70406;SDS011;57821;52.202;0.154;2023-04-07T09:36:28;9.68;;;1.38;;
70406;SDS011;57821;52.202;0.154;2023-04-07T09:39:26;13.07;;;1.20;;
70406;SDS011;57821;52.202;0.154;2023-04-07T09:42:13;10.32;;;1.63;;
70406;SDS011;57821;52.202;0.154;2023-04-07T09:45:00;7.57;;;1.33;;
70406;SDS011;57821;52.202;0.154;2023-04-07T09:47:47;4.22;;;1.23;;
70406;SDS011;57821;52.202;0.154;2023-04-07T09:50:35;5.80;;;1.30;;
70406;SDS011;57821;52.202;0.154;2023-04-07T09:53:39;6.60;;;1.25;;
70406;SDS011;57821;52.202;0.154;2023-04-07T09:56:31;8.32;;;1.38;;
70406;SDS011;57821;52.202;0.154;2023-04-07T09:59:17;6.47;;;1.20;;
70406;SDS011;57821;52.202;0.154;2023-04-07T10:02:06;6.88;;;1.15;;
70406;SDS011;57821;52.202;0.154;2023-04-07T10:04:53;8.05;;;1.23;;
70406;SDS011;57821;52.202;0.154;2023-04-07T10:07:41;7.35;;;1.10;;
70406;SDS011;57821;52.202;0.154;2023-04-07T10:10:29;8.88;;;1.20;;
70406;SDS011;57821;52.202;0.154;2023-04-07T10:13:17;5.15;;;0.93;;
70406;SDS011;57821;52.202;0.154;2023-04-07T10:16:04;4.93;;;0.90;;
70406;SDS011;57821;52.202;0.154;2023-04-07T10:18:52;6.95;;;1.27;;
70406;SDS011;57821;52.202;0.154;2023-04-07T10:21:40;6.18;;;1.20;;
70406;SDS011;57821;52.202;0.154;2023-04-07T10:27:50;5.70;;;1.20;;
70406;SDS011;57821;52.202;0.154;2023-04-07T10:30:40;7.85;;;1.50;;
70406;SDS011;57821;52.202;0.154;2023-04-07T10:33:43;4.55;;;0.88;;
70406;SDS011;57821;52.202;0.154;2023-04-07T10:36:31;6.45;;;1.20;;
70406;SDS011;57821;52.202;0.154;2023-04-07T10:39:18;6.60;;;1.00;;
70406;SDS011;57821;52.202;0.154;2023-04-07T10:42:05;6.25;;;1.10;;
70406;SDS011;57821;52.202;0.154;2023-04-07T10:44:52;6.25;;;1.35;;
70406;SDS011;57821;52.202;0.154;2023-04-07T10:50:44;4.80;;;1.00;;
70406;SDS011;57821;52.202;0.154;2023-04-07T10:53:32;5.72;;;1.25;;
70406;SDS011;57821;52.202;0.154;2023-04-07T10:56:19;5.97;;;1.17;;
70406;SDS011;57821;52.202;0.154;2023-04-07T10:59:15;6.65;;;1.20;;
70406;SDS011;57821;52.202;0.154;2023-04-07T11:04:58;4.63;;;1.00;;
70406;SDS011;57821;52.202;0.154;2023-04-07T11:07:46;6.80;;;1.15;;
70406;SDS011;57821;52.202;0.154;2023-04-07T11:10:37;8.45;;;1.23;;
70406;SDS011;57821;52.202;0.154;2023-04-07T11:13:25;4.40;;;1.00;;
70406;SDS011;57821;52.202;0.154;2023-04-07T11:16:12;5.90;;;1.20;;
70406;SDS011;57821;52.202;0.154;2023-04-07T11:19:00;4.07;;;0.75;;
70406;SDS011;57821;52.202;0.154;2023-04-07T11:21:47;6.72;;;1.35;;
70406;SDS011;57821;52.202;0.154;2023-04-07T11:24:34;4.57;;;0.60;;
70406;SDS011;57821;52.202;0.154;2023-04-07T11:27:23;6.07;;;1.08;;
70406;SDS011;57821;52.202;0.154;2023-04-07T11:30:10;3.97;;;0.70;;
70406;SDS011;57821;52.202;0.154;2023-04-07T11:32:57;8.40;;;1.67;;
70406;SDS011;57821;52.202;0.154;2023-04-07T11:35:51;6.22;;;1.00;;
70406;SDS011;57821;52.202;0.154;2023-04-07T11:38:40;5.95;;;0.88;;
70406;SDS011;57821;52.202;0.154;2023-04-07T11:41:28;5.70;;;0.90;;
70406;SDS011;57821;52.202;0.154;2023-04-07T11:44:16;4.57;;;1.00;;
70406;SDS011;57821;52.202;0.154;2023-04-07T11:47:03;3.83;;;0.90;;
70406;SDS011;57821;52.202;0.154;2023-04-07T11:49:50;3.63;;;1.02;;
70406;SDS011;57821;52.202;0.154;2023-04-07T11:52:43;4.80;;;0.80;;
70406;SDS011;57821;52.202;0.154;2023-04-07T11:55:31;6.75;;;1.05;;
70406;SDS011;57821;52.202;0.154;2023-04-07T11:58:18;3.83;;;1.10;;
70406;SDS011;57821;52.202;0.154;2023-04-07T12:01:05;5.30;;;1.30;;
70406;SDS011;57821;52.202;0.154;2023-04-07T12:03:59;4.55;;;1.60;;
70406;SDS011;57821;52.202;0.154;2023-04-07T12:06:48;5.07;;;1.20;;
70406;SDS011;57821;52.202;0.154;2023-04-07T12:09:35;5.90;;;1.05;;
70406;SDS011;57821;52.202;0.154;2023-04-07T12:12:26;4.15;;;0.80;;
70406;SDS011;57821;52.202;0.154;2023-04-07T12:15:14;2.92;;;0.70;;
70406;SDS011;57821;52.202;0.154;2023-04-07T12:18:01;4.35;;;1.05;;
70406;SDS011;57821;52.202;0.154;2023-04-07T12:20:48;5.03;;;1.30;;
70406;SDS011;57821;52.202;0.154;2023-04-07T12:23:35;5.97;;;1.20;;
70406;SDS011;57821;52.202;0.154;2023-04-07T12:26:22;4.80;;;1.20;;
70406;SDS011;57821;52.202;0.154;2023-04-07T12:29:09;3.35;;;0.85;;
70406;SDS011;57821;52.202;0.154;2023-04-07T12:31:56;3.53;;;0.77;;
70406;SDS011;57821;52.202;0.154;2023-04-07T12:34:42;4.25;;;0.98;;
70406;SDS011;57821;52.202;0.154;2023-04-07T12:37:29;4.47;;;0.82;;
70406;SDS011;57821;52.202;0.154;2023-04-07T12:40:16;4.53;;;0.82;;
70406;SDS011;57821;52.202;0.154;2023-04-07T12:43:03;4.85;;;0.95;;
70406;SDS011;57821;52.202;0.154;2023-04-07T12:45:51;5.40;;;0.98;;
70406;SDS011;57821;52.202;0.154;2023-04-07T12:48:38;3.55;;;1.10;;
70406;SDS011;57821;52.202;0.154;2023-04-07T12:51:24;5.45;;;1.08;;
70406;SDS011;57821;52.202;0.154;2023-04-07T12:54:12;5.80;;;1.10;;
70406;SDS011;57821;52.202;0.154;2023-04-07T12:56:58;4.03;;;1.08;;
70406;SDS011;57821;52.202;0.154;2023-04-07T12:59:45;3.53;;;0.80;;
70406;SDS011;57821;52.202;0.154;2023-04-07T13:02:32;3.50;;;0.77;;
70406;SDS011;57821;52.202;0.154;2023-04-07T13:05:19;3.50;;;0.65;;
70406;SDS011;57821;52.202;0.154;2023-04-07T13:08:06;4.25;;;0.93;;
70406;SDS011;57821;52.202;0.154;2023-04-07T13:10:53;3.20;;;0.70;;
70406;SDS011;57821;52.202;0.154;2023-04-07T13:13:39;6.95;;;0.70;;
70406;SDS011;57821;52.202;0.154;2023-04-07T13:16:26;4.05;;;0.70;;
70406;SDS011;57821;52.202;0.154;2023-04-07T13:19:13;3.72;;;0.70;;
70406;SDS011;57821;52.202;0.154;2023-04-07T13:22:00;5.25;;;1.00;;
70406;SDS011;57821;52.202;0.154;2023-04-07T13:24:51;4.13;;;0.60;;
70406;SDS011;57821;52.202;0.154;2023-04-07T13:27:38;4.05;;;0.70;;
70406;SDS011;57821;52.202;0.154;2023-04-07T13:30:25;3.10;;;0.60;;
70406;SDS011;57821;52.202;0.154;2023-04-07T13:33:12;3.25;;;0.80;;
70406;SDS011;57821;52.202;0.154;2023-04-07T13:35:59;3.42;;;1.00;;
70406;SDS011;57821;52.202;0.154;2023-04-07T13:38:46;5.07;;;1.20;;
70406;SDS011;57821;52.202;0.154;2023-04-07T13:41:32;4.28;;;1.20;;
70406;SDS011;57821;52.202;0.154;2023-04-07T13:44:19;4.47;;;0.80;;
70406;SDS011;57821;52.202;0.154;2023-04-07T13:47:06;3.95;;;1.00;;
70406;SDS011;57821;52.202;0.154;2023-04-07T13:49:53;3.83;;;0.88;;
70406;SDS011;57821;52.202;0.154;2023-04-07T13:52:40;5.03;;;0.82;;
70406;SDS011;57821;52.202;0.154;2023-04-07T13:55:27;3.10;;;0.70;;
70406;SDS011;57821;52.202;0.154;2023-04-07T13:58:14;3.83;;;0.88;;
70406;SDS011;57821;52.202;0.154;2023-04-07T14:01:01;3.35;;;0.90;;
70406;SDS011;57821;52.202;0.154;2023-04-07T14:03:49;4.05;;;0.93;;
70406;SDS011;57821;52.202;0.154;2023-04-07T14:06:36;8.10;;;0.93;;
70406;SDS011;57821;52.202;0.154;2023-04-07T14:09:23;2.97;;;0.80;;
70406;SDS011;57821;52.202;0.154;2023-04-07T14:12:10;5.50;;;1.02;;
70406;SDS011;57821;52.202;0.154;2023-04-07T14:14:56;4.43;;;1.02;;
70406;SDS011;57821;52.202;0.154;2023-04-07T14:17:43;3.03;;;0.57;;
70406;SDS011;57821;52.202;0.154;2023-04-07T14:20:30;2.50;;;0.50;;
70406;SDS011;57821;52.202;0.154;2023-04-07T14:23:17;5.05;;;1.00;;
70406;SDS011;57821;52.202;0.154;2023-04-07T14:26:21;3.50;;;1.30;;
70406;SDS011;57821;52.202;0.154;2023-04-07T14:29:08;4.45;;;1.00;;
70406;SDS011;57821;52.202;0.154;2023-04-07T14:31:56;3.50;;;0.60;;
70406;SDS011;57821;52.202;0.154;2023-04-07T14:34:43;5.28;;;1.05;;
70406;SDS011;57821;52.202;0.154;2023-04-07T14:37:30;3.85;;;0.85;;
70406;SDS011;57821;52.202;0.154;2023-04-07T14:40:17;2.70;;;0.70;;
70406;SDS011;57821;52.202;0.154;2023-04-07T14:43:07;2.78;;;0.70;;
70406;SDS011;57821;52.202;0.154;2023-04-07T14:45:54;3.78;;;0.90;;
70406;SDS011;57821;52.202;0.154;2023-04-07T14:48:40;3.20;;;0.80;;
70406;SDS011;57821;52.202;0.154;2023-04-07T14:51:27;3.15;;;0.55;;
70406;SDS011;57821;52.202;0.154;2023-04-07T14:54:14;3.92;;;0.73;;
70406;SDS011;57821;52.202;0.154;2023-04-07T14:57:01;3.95;;;0.80;;
70406;SDS011;57821;52.202;0.154;2023-04-07T14:59:48;2.83;;;0.50;;
70406;SDS011;57821;52.202;0.154;2023-04-07T15:02:34;5.70;;;0.85;;
70406;SDS011;57821;52.202;0.154;2023-04-07T15:05:22;2.85;;;0.60;;
70406;SDS011;57821;52.202;0.154;2023-04-07T15:08:08;2.90;;;0.55;;
70406;SDS011;57821;52.202;0.154;2023-04-07T15:10:55;2.80;;;0.63;;
70406;SDS011;57821;52.202;0.154;2023-04-07T15:13:42;2.65;;;0.52;;
70406;SDS011;57821;52.202;0.154;2023-04-07T15:16:29;3.55;;;0.68;;
70406;SDS011;57821;52.202;0.154;2023-04-07T15:19:16;3.60;;;0.80;;
70406;SDS011;57821;52.202;0.154;2023-04-07T15:22:02;3.30;;;0.70;;
70406;SDS011;57821;52.202;0.154;2023-04-07T15:24:49;3.95;;;0.80;;
70406;SDS011;57821;52.202;0.154;2023-04-07T15:27:36;3.85;;;0.93;;
70406;SDS011;57821;52.202;0.154;2023-04-07T15:30:23;4.30;;;0.80;;
70406;SDS011;57821;52.202;0.154;2023-04-07T15:33:10;4.75;;;1.05;;
70406;SDS011;57821;52.202;0.154;2023-04-07T15:35:57;3.35;;;0.70;;
70406;SDS011;57821;52.202;0.154;2023-04-07T15:38:43;4.03;;;0.82;;
70406;SDS011;57821;52.202;0.154;2023-04-07T15:41:30;4.50;;;0.93;;
70406;SDS011;57821;52.202;0.154;2023-04-07T15:44:17;3.92;;;1.00;;
70406;SDS011;57821;52.202;0.154;2023-04-07T15:47:05;5.50;;;1.02;;
70406;SDS011;57821;52.202;0.154;2023-04-07T15:49:52;5.43;;;1.52;;
70406;SDS011;57821;52.202;0.154;2023-04-07T15:52:39;4.90;;;1.20;;
70406;SDS011;57821;52.202;0.154;2023-04-07T15:55:25;5.50;;;0.82;;
70406;SDS011;57821;52.202;0.154;2023-04-07T15:58:12;6.40;;;0.80;;
70406;SDS011;57821;52.202;0.154;2023-04-07T16:00:59;3.97;;;0.98;;
70406;SDS011;57821;52.202;0.154;2023-04-07T16:03:46;3.42;;;0.65;;
70406;SDS011;57821;52.202;0.154;2023-04-07T16:06:34;5.85;;;0.82;;
70406;SDS011;57821;52.202;0.154;2023-04-07T16:09:21;3.25;;;0.65;;
70406;SDS011;57821;52.202;0.154;2023-04-07T16:12:08;4.65;;;0.70;;
70406;SDS011;57821;52.202;0.154;2023-04-07T16:14:55;5.40;;;1.20;;
70406;SDS011;57821;52.202;0.154;2023-04-07T16:17:42;3.88;;;0.88;;
70406;SDS011;57821;52.202;0.154;2023-04-07T16:20:31;5.00;;;1.42;;
70406;SDS011;57821;52.202;0.154;2023-04-07T16:23:18;3.38;;;0.73;;
70406;SDS011;57821;52.202;0.154;2023-04-07T16:26:05;3.42;;;0.80;;
70406;SDS011;57821;52.202;0.154;2023-04-07T16:28:52;4.03;;;0.85;;
70406;SDS011;57821;52.202;0.154;2023-04-07T16:31:39;3.92;;;0.90;;
70406;SDS011;57821;52.202;0.154;2023-04-07T16:34:25;4.22;;;0.82;;
70406;SDS011;57821;52.202;0.154;2023-04-07T16:37:12;6.30;;;1.00;;
70406;SDS011;57821;52.202;0.154;2023-04-07T16:39:59;4.05;;;0.80;;
70406;SDS011;57821;52.202;0.154;2023-04-07T16:42:46;5.72;;;1.05;;
70406;SDS011;57821;52.202;0.154;2023-04-07T16:45:33;5.80;;;1.05;;
70406;SDS011;57821;52.202;0.154;2023-04-07T16:48:20;4.22;;;0.98;;
70406;SDS011;57821;52.202;0.154;2023-04-07T16:51:06;5.10;;;1.00;;
70406;SDS011;57821;52.202;0.154;2023-04-07T16:53:53;4.40;;;1.27;;
70406;SDS011;57821;52.202;0.154;2023-04-07T16:56:40;5.05;;;1.25;;
70406;SDS011;57821;52.202;0.154;2023-04-07T16:59:27;5.70;;;2.25;;
70406;SDS011;57821;52.202;0.154;2023-04-07T17:02:15;6.47;;;1.40;;
70406;SDS011;57821;52.202;0.154;2023-04-07T17:05:02;3.67;;;1.05;;
70406;SDS011;57821;52.202;0.154;2023-04-07T17:07:49;5.07;;;1.27;;
70406;SDS011;57821;52.202;0.154;2023-04-07T17:10:36;5.38;;;0.90;;
70406;SDS011;57821;52.202;0.154;2023-04-07T17:13:23;4.68;;;1.20;;
70406;SDS011;57821;52.202;0.154;2023-04-07T17:16:13;6.40;;;1.13;;